createdAt,value
2022-07-28T00:00:11.666Z,43.96
2022-07-28T00:01:11.658Z,44.20
2022-07-28T00:02:11.770Z,49.80
2022-07-28T00:03:11.692Z,50.63
2022-07-28T00:04:11.912Z,48.31
2022-07-28T00:05:11.599Z,48.35
2022-07-28T00:06:11.606Z,49.44
2022-07-28T00:07:11.618Z,54.49
2022-07-28T00:08:11.610Z,45.54
2022-07-28T00:09:11.570Z,46.17
2022-07-28T00:10:11.558Z,55.59
2022-07-28T00:11:11.578Z,45.50
2022-07-28T00:12:11.581Z,44.81
2022-07-28T00:13:11.674Z,46.30
2022-07-28T00:14:11.861Z,50.61
2022-07-28T00:15:11.527Z,44.03
2022-07-28T00:16:11.644Z,44.26
2022-07-28T00:17:11.706Z,49.98
2022-07-28T00:18:11.493Z,44.91
2022-07-28T00:19:11.526Z,44.70
2022-07-28T00:20:12.746Z,44.48
2022-07-28T00:21:11.506Z,49.73
2022-07-28T00:22:11.463Z,48.90
2022-07-28T00:23:11.527Z,52.52
2022-07-28T00:24:11.955Z,54.71
2022-07-28T00:25:11.457Z,51.13
2022-07-28T00:26:11.433Z,44.33
2022-07-28T00:27:12.055Z,53.44
2022-07-28T00:28:12.353Z,54.84
2022-07-28T00:29:11.428Z,54.12
2022-07-28T00:30:11.418Z,55.42
2022-07-28T00:31:13.771Z,52.95
2022-07-28T00:32:12.255Z,52.19
2022-07-28T00:33:11.418Z,53.87
2022-07-28T00:34:11.650Z,49.57
2022-07-28T00:35:11.395Z,51.33
2022-07-28T00:36:11.817Z,53.46
2022-07-28T00:37:13.390Z,54.95
2022-07-28T00:38:11.446Z,52.04
2022-07-28T00:39:11.348Z,50.24
2022-07-28T00:40:13.418Z,67.05
2022-07-28T00:41:12.348Z,54.40
2022-07-28T00:42:11.347Z,46.76
2022-07-28T00:43:11.381Z,49.08
2022-07-28T00:44:11.735Z,48.56
2022-07-28T00:45:11.391Z,44.39
2022-07-28T00:46:11.359Z,49.45
2022-07-28T00:47:11.275Z,50.98
2022-07-28T00:48:43.239Z,45.53
2022-07-28T00:49:43.191Z,52.53
2022-07-28T00:50:43.186Z,60.70
2022-07-28T00:51:44.177Z,51.31
2022-07-28T00:52:11.289Z,48.21
2022-07-28T00:53:11.246Z,55.49
2022-07-28T00:54:11.513Z,44.52
2022-07-28T00:55:11.217Z,44.97
2022-07-28T00:56:11.364Z,55.09
2022-07-28T00:57:11.240Z,45.00
2022-07-28T00:58:11.217Z,50.70
2022-07-28T00:59:11.222Z,50.25
2022-07-28T01:00:11.210Z,58.10
2022-07-28T01:01:11.168Z,46.10
2022-07-28T01:02:11.325Z,57.15
2022-07-28T01:03:12.182Z,46.76
2022-07-28T01:04:11.601Z,50.35
2022-07-28T01:05:11.164Z,44.77
2022-07-28T01:06:11.167Z,48.92
2022-07-28T01:07:11.132Z,52.08
2022-07-28T01:08:11.134Z,50.39
2022-07-28T01:09:11.107Z,45.54
2022-07-28T01:10:11.174Z,50.88
2022-07-28T01:11:11.138Z,44.57
2022-07-28T01:12:11.109Z,44.51
2022-07-28T01:13:11.096Z,44.12
2022-07-28T01:14:11.523Z,50.51
2022-07-28T01:15:11.096Z,45.06
2022-07-28T01:16:11.136Z,49.11
2022-07-28T01:17:11.059Z,46.24
2022-07-28T01:18:11.108Z,52.95
2022-07-28T01:19:11.039Z,50.85
2022-07-28T01:20:11.045Z,51.28
2022-07-28T01:21:11.040Z,51.13
2022-07-28T01:22:11.025Z,56.82
2022-07-28T01:23:11.042Z,47.41
2022-07-28T01:24:11.203Z,46.19
2022-07-28T01:25:10.998Z,50.56
2022-07-28T01:26:10.988Z,47.19
2022-07-28T01:27:11.178Z,45.88
2022-07-28T01:28:10.974Z,46.10
2022-07-28T01:29:10.957Z,45.70
2022-07-28T01:30:11.860Z,50.44
2022-07-28T01:31:10.990Z,45.57
2022-07-28T01:32:10.977Z,48.28
2022-07-28T01:33:11.035Z,53.47
2022-07-28T01:34:11.104Z,48.52
2022-07-28T01:35:11.051Z,45.44
2022-07-28T01:36:10.907Z,50.36
2022-07-28T01:37:10.944Z,44.85
2022-07-28T01:38:10.925Z,46.34
2022-07-28T01:39:10.915Z,45.48
2022-07-28T01:40:10.869Z,46.94
2022-07-28T01:41:10.853Z,46.69
2022-07-28T01:42:10.833Z,50.31
2022-07-28T01:43:13.314Z,51.41
2022-07-28T01:44:11.111Z,45.22
2022-07-28T02:03:49.753Z,44.31
2022-07-28T02:04:49.083Z,45.01
2022-07-28T02:05:48.854Z,52.08
2022-07-28T02:06:48.848Z,44.86
2022-07-28T02:07:50.022Z,45.92
2022-07-28T02:08:49.958Z,45.55
2022-07-28T02:09:50.020Z,48.86
2022-07-28T02:10:49.957Z,48.78
2022-07-28T02:11:49.920Z,50.34
2022-07-28T02:12:50.490Z,44.99
2022-07-28T02:14:21.846Z,44.74
2022-07-28T02:14:49.918Z,45.03
2022-07-28T02:15:50.851Z,44.47
2022-07-28T02:16:50.426Z,45.35
2022-07-28T02:17:50.004Z,51.07
2022-07-28T02:18:49.916Z,50.89
2022-07-28T02:19:50.800Z,46.53
2022-07-28T02:20:49.891Z,63.00
2022-07-28T02:21:49.881Z,46.64
2022-07-28T02:22:51.212Z,53.36
2022-07-28T02:23:49.853Z,53.12
2022-07-28T02:24:50.839Z,48.03
2022-07-28T02:25:49.875Z,52.94
2022-07-28T02:26:49.841Z,50.74
2022-07-28T02:27:49.816Z,50.36
2022-07-28T02:28:49.829Z,45.31
2022-07-28T02:29:51.444Z,51.85
2022-07-28T02:30:50.888Z,46.70
2022-07-28T02:31:50.777Z,45.55
2022-07-28T02:32:49.762Z,58.00
2022-07-28T02:33:58.852Z,47.08
2022-07-28T02:34:50.773Z,50.03
2022-07-28T02:35:50.370Z,45.53
2022-07-28T02:36:49.735Z,56.10
2022-07-28T02:37:49.749Z,54.28
2022-07-28T02:38:49.725Z,50.12
2022-07-28T02:39:55.315Z,45.55
2022-07-28T02:40:50.729Z,46.79
2022-07-28T02:41:49.746Z,53.49
2022-07-28T02:42:49.699Z,57.42
2022-07-28T02:43:50.845Z,46.50
2022-07-28T02:44:49.684Z,54.01
2022-07-28T02:45:49.784Z,48.60
2022-07-28T02:46:49.671Z,52.34
2022-07-28T02:47:49.649Z,45.03
2022-07-28T02:48:49.733Z,52.59
2022-07-28T02:49:49.639Z,49.19
2022-07-28T02:50:49.660Z,50.18
2022-07-28T02:51:50.797Z,53.53
2022-07-28T02:52:49.654Z,53.96
2022-07-28T02:53:49.629Z,46.03
2022-07-28T02:54:49.595Z,55.84
2022-07-28T02:55:49.658Z,51.06
2022-07-28T02:56:53.263Z,53.26
2022-07-28T02:57:53.254Z,54.31
2022-07-28T02:58:51.565Z,50.94
2022-07-28T02:59:49.629Z,51.44
2022-07-28T03:00:49.546Z,55.42
2022-07-28T03:01:49.735Z,55.65
2022-07-28T03:02:49.619Z,47.47
2022-07-28T03:03:49.550Z,61.83
2022-07-28T03:04:49.604Z,47.39
2022-07-28T03:05:49.584Z,51.52
2022-07-28T03:06:49.515Z,53.26
2022-07-28T03:07:51.173Z,53.62
2022-07-28T03:08:49.484Z,59.89
2022-07-28T03:09:49.503Z,55.26
2022-07-28T03:10:49.466Z,53.11
2022-07-28T03:11:49.486Z,63.60
2022-07-28T03:12:49.528Z,55.48
2022-07-28T03:13:49.467Z,55.80
2022-07-28T03:14:49.474Z,52.17
2022-07-28T03:15:49.453Z,55.48
2022-07-28T03:16:55.106Z,49.33
2022-07-28T03:17:51.422Z,59.45
2022-07-28T03:18:49.445Z,55.98
2022-07-28T03:19:49.440Z,53.51
2022-07-28T03:20:49.390Z,52.35
2022-07-28T03:21:49.404Z,63.10
2022-07-28T03:22:49.371Z,57.09
2022-07-28T03:23:50.421Z,47.74
2022-07-28T03:24:49.397Z,62.80
2022-07-28T03:25:49.375Z,55.87
2022-07-28T03:26:49.343Z,56.66
2022-07-28T03:27:49.344Z,59.47
2022-07-28T03:28:49.352Z,61.81
2022-07-28T03:29:49.335Z,61.70
2022-07-28T03:30:49.369Z,59.88
2022-07-28T03:31:49.303Z,61.47
2022-07-28T03:32:49.313Z,63.50
2022-07-28T03:33:49.319Z,60.50
2022-07-28T03:34:49.296Z,61.64
2022-07-28T03:35:49.268Z,61.17
2022-07-28T03:36:49.277Z,60.82
2022-07-28T03:37:49.273Z,61.94
2022-07-28T03:38:49.356Z,67.79
2022-07-28T03:39:49.286Z,64.99
2022-07-28T03:40:49.874Z,62.02
2022-07-28T03:41:49.271Z,63.80
2022-07-28T03:42:49.218Z,62.82
2022-07-28T03:43:49.221Z,60.94
2022-07-28T03:44:50.253Z,60.64
2022-07-28T03:45:49.250Z,62.83
2022-07-28T04:02:38.785Z,65.06
2022-07-28T04:03:43.604Z,62.95
2022-07-28T04:04:39.708Z,53.13
2022-07-28T04:05:38.711Z,56.30
2022-07-28T04:06:38.709Z,69.51
2022-07-28T04:07:39.852Z,59.33
2022-07-28T04:08:39.862Z,69.58
2022-07-28T04:09:39.809Z,61.60
2022-07-28T04:10:39.892Z,63.14
2022-07-28T04:11:39.841Z,70.13
2022-07-28T04:12:39.820Z,61.28
2022-07-28T04:13:39.777Z,61.19
2022-07-28T04:14:39.761Z,62.95
2022-07-28T04:15:39.759Z,64.15
2022-07-28T04:16:39.833Z,64.18
2022-07-28T04:17:39.740Z,66.02
2022-07-28T04:18:39.751Z,63.81
2022-07-28T04:19:39.720Z,64.51
2022-07-28T04:20:39.719Z,66.92
2022-07-28T04:21:39.695Z,66.94
2022-07-28T04:22:39.834Z,60.26
2022-07-28T04:23:39.780Z,69.00
2022-07-28T04:24:39.747Z,60.04
2022-07-28T04:25:40.139Z,64.54
2022-07-28T04:26:39.659Z,66.68
2022-07-28T04:27:39.684Z,64.08
2022-07-28T04:28:39.668Z,60.85
2022-07-28T04:29:39.630Z,65.12
2022-07-28T04:30:43.735Z,58.26
2022-07-28T04:31:40.622Z,66.91
2022-07-28T04:32:39.616Z,62.28
2022-07-28T04:33:39.732Z,68.26
2022-07-28T04:34:39.622Z,65.12
2022-07-28T04:35:39.605Z,69.60
2022-07-28T04:36:39.582Z,66.00
2022-07-28T04:37:39.615Z,69.75
2022-07-28T04:38:39.561Z,61.43
2022-07-28T04:39:39.562Z,59.50
2022-07-28T04:40:39.563Z,66.05
2022-07-28T04:41:40.361Z,71.46
2022-07-28T04:42:39.569Z,67.64
2022-07-28T04:43:39.514Z,64.44
2022-07-28T04:44:39.523Z,67.43
2022-07-28T04:45:39.587Z,65.38
2022-07-28T04:46:40.619Z,72.20
2022-07-28T04:47:39.478Z,69.14
2022-07-28T04:48:39.628Z,58.09
2022-07-28T04:49:39.469Z,69.70
2022-07-28T04:50:40.364Z,64.02
2022-07-28T04:51:40.359Z,68.23
2022-07-28T04:52:39.450Z,70.31
2022-07-28T04:53:39.439Z,68.81
2022-07-28T04:54:39.431Z,69.10
2022-07-28T04:55:39.443Z,70.55
2022-07-28T04:56:39.450Z,64.90
2022-07-28T04:57:39.409Z,66.98
2022-07-28T04:58:39.410Z,63.21
2022-07-28T04:59:39.394Z,67.41
2022-07-28T05:00:39.554Z,67.33
2022-07-28T05:01:39.491Z,68.91
2022-07-28T05:02:39.367Z,68.92
2022-07-28T05:03:39.874Z,63.75
2022-07-28T05:04:39.901Z,65.72
2022-07-28T05:05:39.352Z,60.60
2022-07-28T05:06:39.325Z,61.24
2022-07-28T05:07:39.375Z,65.57
2022-07-28T05:08:40.368Z,68.87
2022-07-28T05:09:39.327Z,64.04
2022-07-28T05:10:39.355Z,66.13
2022-07-28T05:11:39.296Z,69.81
2022-07-28T05:12:39.356Z,71.94
2022-07-28T05:13:39.312Z,69.45
2022-07-28T05:14:39.265Z,63.47
2022-07-28T05:15:39.289Z,67.70
2022-07-28T05:16:39.359Z,68.46
2022-07-28T05:17:39.320Z,59.31
2022-07-28T05:18:39.295Z,64.40
2022-07-28T05:19:39.260Z,68.98
2022-07-28T05:20:39.293Z,65.79
2022-07-28T05:21:39.230Z,69.49
2022-07-28T05:22:39.221Z,72.18
2022-07-28T05:23:41.323Z,68.25
2022-07-28T05:24:40.216Z,68.62
2022-07-28T05:25:39.272Z,61.59
2022-07-28T05:26:39.234Z,67.62
2022-07-28T05:27:39.176Z,64.20
2022-07-28T05:28:39.179Z,71.08
2022-07-28T05:29:46.665Z,69.48
2022-07-28T05:30:40.194Z,67.52
2022-07-28T05:31:39.318Z,67.40
2022-07-28T05:32:39.156Z,66.41
2022-07-28T05:33:39.158Z,68.86
2022-07-28T05:34:40.024Z,69.45
2022-07-28T05:35:39.135Z,71.26
2022-07-28T05:36:39.161Z,69.60
2022-07-28T05:37:39.143Z,67.24
2022-07-28T05:38:39.195Z,65.05
2022-07-28T05:39:39.137Z,68.21
2022-07-28T05:40:39.110Z,67.81
2022-07-28T05:41:39.110Z,64.79
2022-07-28T05:42:39.066Z,62.01
2022-07-28T05:43:39.272Z,66.50
2022-07-28T05:44:39.047Z,68.69
2022-07-28T05:45:39.076Z,65.62
2022-07-28T05:46:39.055Z,66.09
2022-07-28T05:47:39.041Z,62.01
2022-07-28T05:48:39.071Z,69.21
2022-07-28T05:49:39.108Z,67.58
2022-07-28T05:50:39.039Z,69.13
2022-07-28T05:51:41.830Z,64.29
2022-07-28T05:52:39.991Z,66.54
2022-07-28T05:53:38.975Z,68.42
2022-07-28T05:54:38.965Z,65.73
2022-07-28T05:56:00.677Z,70.30
2022-07-28T05:56:39.968Z,64.04
2022-07-28T05:57:38.941Z,67.20
2022-07-28T05:58:39.009Z,67.72
2022-07-28T05:59:38.999Z,70.11
2022-07-28T06:00:38.970Z,70.38
2022-07-28T06:01:38.943Z,63.59
2022-07-28T06:02:39.011Z,69.55
2022-07-28T06:03:42.282Z,65.00
2022-07-28T06:04:39.949Z,62.76
2022-07-28T06:05:59.208Z,59.17
2022-07-28T06:06:39.897Z,60.60
2022-07-28T06:07:43.462Z,67.70
2022-07-28T06:08:39.877Z,66.53
2022-07-28T06:09:43.384Z,64.15
2022-07-28T06:10:40.837Z,67.13
2022-07-28T06:11:38.842Z,67.86
2022-07-28T06:12:38.832Z,65.97
2022-07-28T06:13:38.857Z,68.71
2022-07-28T06:14:38.863Z,68.44
2022-07-28T06:15:38.827Z,64.48
2022-07-28T06:16:38.892Z,65.54
2022-07-28T06:17:40.387Z,62.48
2022-07-28T06:18:38.787Z,65.49
2022-07-28T06:19:38.795Z,65.93
2022-07-28T06:20:38.774Z,65.57
2022-07-28T06:21:38.770Z,65.32
2022-07-28T06:22:39.782Z,67.52
2022-07-28T06:23:38.782Z,63.47
2022-07-28T06:24:39.405Z,60.59
2022-07-28T06:25:38.799Z,64.01
2022-07-28T06:26:44.016Z,61.84
2022-07-28T06:27:40.724Z,64.44
2022-07-28T06:28:39.403Z,65.89
2022-07-28T06:29:38.794Z,70.94
2022-07-28T06:30:38.748Z,69.45
2022-07-28T06:31:38.767Z,71.26
2022-07-28T06:32:38.781Z,61.84
2022-07-28T06:33:38.697Z,63.83
2022-07-28T06:34:38.683Z,61.04
2022-07-28T06:35:47.707Z,64.67
2022-07-28T06:36:39.635Z,67.84
2022-07-28T06:37:38.705Z,67.92
2022-07-28T06:38:38.711Z,61.96
2022-07-28T06:39:38.648Z,69.08
2022-07-28T06:40:38.628Z,69.36
2022-07-28T06:41:38.613Z,66.90
2022-07-28T06:42:38.667Z,68.98
2022-07-28T06:43:39.380Z,64.43
2022-07-28T06:44:57.863Z,64.97
2022-07-28T06:45:40.589Z,60.41
2022-07-28T06:46:39.598Z,65.68
2022-07-28T06:47:38.600Z,64.97
2022-07-28T06:48:39.780Z,65.30
2022-07-28T06:49:38.561Z,63.32
2022-07-28T06:50:39.439Z,65.22
2022-07-28T06:51:38.652Z,70.86
2022-07-28T06:52:38.559Z,64.42
2022-07-28T06:53:38.570Z,64.42
2022-07-28T06:54:38.537Z,66.80
2022-07-28T06:55:39.535Z,68.99
2022-07-28T06:56:38.560Z,63.23
2022-07-28T06:57:38.559Z,68.46
2022-07-28T06:58:38.542Z,65.94
2022-07-28T06:59:38.489Z,69.76
2022-07-28T07:00:38.637Z,61.52
2022-07-28T07:01:38.481Z,64.28
2022-07-28T07:02:38.492Z,64.17
2022-07-28T07:03:38.484Z,53.46
2022-07-28T07:04:40.045Z,61.93
2022-07-28T07:05:38.459Z,60.87
2022-07-28T07:06:38.500Z,67.92
2022-07-28T07:07:42.769Z,65.76
2022-07-28T07:08:40.421Z,61.62
2022-07-28T07:09:38.910Z,65.23
2022-07-28T07:10:38.422Z,62.67
2022-07-28T07:11:38.427Z,65.70
2022-07-28T07:12:38.412Z,58.80
2022-07-28T07:13:38.408Z,62.97
2022-07-28T07:14:38.375Z,65.33
2022-07-28T07:15:38.398Z,68.02
2022-07-28T07:16:38.986Z,61.20
2022-07-28T07:17:38.495Z,60.37
2022-07-28T07:18:38.339Z,66.88
2022-07-28T07:19:38.327Z,64.78
2022-07-28T07:20:39.098Z,60.89
2022-07-28T07:21:38.369Z,61.71
2022-07-28T07:22:38.303Z,64.60
2022-07-28T07:23:38.316Z,63.83
2022-07-28T07:24:39.045Z,65.02
2022-07-28T07:25:38.348Z,61.57
2022-07-28T07:26:38.295Z,61.51
2022-07-28T07:27:38.379Z,61.08
2022-07-28T07:28:38.288Z,67.76
2022-07-28T07:29:38.254Z,64.27
2022-07-28T07:30:38.240Z,67.37
2022-07-28T07:31:38.287Z,66.47
2022-07-28T07:32:38.246Z,66.28
2022-07-28T07:33:38.271Z,61.59
2022-07-28T07:34:38.235Z,66.56
2022-07-28T07:35:38.375Z,69.03
2022-07-28T07:36:38.203Z,67.17
2022-07-28T07:37:39.652Z,62.85
2022-07-28T07:38:38.246Z,69.69
2022-07-28T07:39:39.174Z,68.51
2022-07-28T07:40:38.181Z,63.91
2022-07-28T07:41:38.223Z,66.95
2022-07-28T07:42:38.147Z,61.16
2022-07-28T07:43:38.180Z,66.00
2022-07-28T07:44:38.136Z,63.51
2022-07-28T07:45:38.149Z,64.65
2022-07-28T07:46:38.195Z,65.42
2022-07-28T07:47:38.136Z,66.26
2022-07-28T07:48:38.150Z,64.76
2022-07-28T07:49:45.354Z,65.27
2022-07-28T07:50:39.092Z,63.41
2022-07-28T07:51:38.103Z,61.51
2022-07-28T07:52:38.101Z,63.32
2022-07-28T07:53:38.066Z,67.76
2022-07-28T07:54:38.086Z,66.79
2022-07-28T07:55:38.061Z,62.68
2022-07-28T07:56:38.931Z,60.30
2022-07-28T07:57:38.059Z,70.84
2022-07-28T07:58:38.056Z,64.81
2022-07-28T07:59:38.983Z,64.44
2022-07-28T08:00:38.035Z,67.64
2022-07-28T08:01:40.527Z,62.36
2022-07-28T08:02:38.023Z,70.08
2022-07-28T08:03:38.566Z,67.32
2022-07-28T08:04:38.341Z,68.24
2022-07-28T08:05:38.027Z,67.12
2022-07-28T08:06:38.083Z,62.21
2022-07-28T08:07:38.942Z,67.96
2022-07-28T08:08:43.813Z,64.41
2022-07-28T08:09:40.935Z,61.05
2022-07-28T08:10:37.955Z,64.45
2022-07-28T08:11:37.946Z,68.63
2022-07-28T08:12:37.953Z,66.17
2022-07-28T08:13:38.435Z,61.50
2022-07-28T08:15:09.841Z,58.49
2022-07-28T08:15:37.930Z,62.02
2022-07-28T08:16:37.947Z,64.33
2022-07-28T08:17:37.885Z,65.18
2022-07-28T08:18:37.932Z,61.77
2022-07-28T08:19:37.896Z,68.09
2022-07-28T08:20:38.102Z,67.45
2022-07-28T08:21:37.884Z,62.97
2022-07-28T08:22:37.871Z,59.05
2022-07-28T08:23:37.832Z,65.14
2022-07-28T08:24:37.825Z,67.02
2022-07-28T08:25:37.836Z,64.20
2022-07-28T08:26:37.843Z,64.66
2022-07-28T08:27:37.835Z,63.99
2022-07-28T08:28:37.878Z,64.55
2022-07-28T08:29:37.790Z,64.40
2022-07-28T08:30:39.574Z,66.45
2022-07-28T08:31:37.928Z,62.43
2022-07-28T08:32:37.786Z,66.97
2022-07-28T08:33:53.890Z,68.84
2022-07-28T08:34:39.519Z,65.61
2022-07-28T08:35:37.801Z,63.16
2022-07-28T08:36:37.749Z,56.24
2022-07-28T08:37:37.718Z,65.49
2022-07-28T08:38:38.117Z,66.19
2022-07-28T08:39:37.723Z,67.89
2022-07-28T08:40:37.913Z,65.15
2022-07-28T08:41:37.709Z,63.90
2022-07-28T08:42:37.687Z,58.43
2022-07-28T08:43:37.709Z,64.41
2022-07-28T08:44:37.670Z,63.83
2022-07-28T08:45:37.680Z,60.81
2022-07-28T08:46:37.764Z,60.54
2022-07-28T08:47:58.615Z,69.44
2022-07-28T08:48:39.757Z,67.67
2022-07-28T08:49:39.329Z,63.68
2022-07-28T08:50:37.825Z,62.59
2022-07-28T08:51:37.724Z,57.11
2022-07-28T08:52:37.653Z,66.64
2022-07-28T08:53:37.618Z,63.20
2022-07-28T08:54:37.604Z,65.83
2022-07-28T08:55:37.626Z,62.50
2022-07-28T08:56:37.587Z,61.71
2022-07-28T08:57:37.580Z,68.04
2022-07-28T08:58:37.654Z,62.54
2022-07-28T08:59:38.551Z,61.96
2022-07-28T09:00:37.576Z,69.87
2022-07-28T09:01:39.198Z,60.51
2022-07-28T09:02:37.647Z,63.91
2022-07-28T09:03:37.672Z,62.79
2022-07-28T09:04:37.553Z,65.01
2022-07-28T09:05:37.629Z,65.57
2022-07-28T09:06:37.591Z,61.23
2022-07-28T09:07:37.533Z,67.18
2022-07-28T09:08:37.551Z,63.78
2022-07-28T09:09:37.510Z,62.51
2022-07-28T09:10:37.530Z,64.41
2022-07-28T09:11:37.501Z,64.96
2022-07-28T09:12:37.542Z,65.02
2022-07-28T09:13:38.312Z,63.11
2022-07-28T09:14:37.476Z,64.62
2022-07-28T09:15:37.588Z,66.92
2022-07-28T09:16:37.520Z,68.39
2022-07-28T09:17:37.444Z,66.64
2022-07-28T09:18:37.515Z,65.46
2022-07-28T09:19:37.433Z,67.03
2022-07-28T09:20:37.426Z,66.92
2022-07-28T09:21:37.448Z,70.51
2022-07-28T09:22:37.431Z,63.24
2022-07-28T09:23:43.868Z,64.75
2022-07-28T09:24:38.421Z,64.39
2022-07-28T09:25:37.402Z,60.88
2022-07-28T09:26:37.408Z,63.62
2022-07-28T09:27:37.370Z,67.36
2022-07-28T09:28:37.409Z,65.81
2022-07-28T09:29:37.394Z,63.61
2022-07-28T09:30:37.428Z,66.39
2022-07-28T09:31:38.384Z,60.82
2022-07-28T09:32:37.362Z,67.57
2022-07-28T09:33:41.145Z,67.79
2022-07-28T09:34:37.339Z,58.80
2022-07-28T09:35:37.319Z,67.32
2022-07-28T09:36:37.307Z,64.80
2022-07-28T09:37:37.293Z,66.25
2022-07-28T09:38:37.285Z,65.69
2022-07-28T09:39:37.295Z,66.85
2022-07-28T09:40:37.304Z,63.90
2022-07-28T09:41:37.300Z,66.29
2022-07-28T09:42:37.277Z,58.77
2022-07-28T09:43:37.252Z,62.86
2022-07-28T09:44:37.269Z,66.63
2022-07-28T09:45:37.244Z,63.14
2022-07-28T09:46:37.489Z,63.17
2022-07-28T09:47:37.398Z,65.87
2022-07-28T09:48:37.431Z,62.89
2022-07-28T09:49:37.277Z,67.35
2022-07-28T09:50:37.218Z,61.65
2022-07-28T09:51:37.202Z,63.23
2022-07-28T09:52:37.208Z,62.54
2022-07-28T09:53:37.183Z,62.50
2022-07-28T09:54:40.750Z,65.61
2022-07-28T09:55:38.179Z,62.45
2022-07-28T09:56:37.171Z,65.44
2022-07-28T09:57:37.159Z,65.51
2022-07-28T09:58:37.164Z,65.18
2022-07-28T09:59:37.144Z,59.02
2022-07-28T10:00:37.139Z,65.62
2022-07-28T10:01:37.492Z,65.86
2022-07-28T10:02:37.178Z,67.28
2022-07-28T10:03:37.101Z,64.16
2022-07-28T10:04:38.071Z,62.15
2022-07-28T10:05:37.084Z,63.93
2022-07-28T10:06:37.137Z,65.42
2022-07-28T10:07:37.083Z,61.89
2022-07-28T10:08:37.102Z,65.90
2022-07-28T10:09:37.084Z,62.52
2022-07-28T10:10:37.046Z,65.58
2022-07-28T10:11:41.503Z,65.65
2022-07-28T10:12:38.051Z,63.69
2022-07-28T10:13:37.043Z,68.73
2022-07-28T10:14:37.038Z,64.04
2022-07-28T10:15:37.041Z,60.80
2022-07-28T10:16:37.102Z,64.71
2022-07-28T10:17:37.018Z,66.92
2022-07-28T10:18:37.000Z,66.21
2022-07-28T10:19:37.007Z,66.23
2022-07-28T10:20:37.007Z,63.83
2022-07-28T10:21:37.003Z,68.57
2022-07-28T10:22:42.472Z,66.80
2022-07-28T10:23:38.943Z,60.65
2022-07-28T10:24:36.986Z,65.11
2022-07-28T10:25:36.984Z,62.38
2022-07-28T10:26:36.933Z,65.72
2022-07-28T10:27:36.930Z,62.09
2022-07-28T10:28:41.938Z,61.00
2022-07-28T10:29:38.914Z,65.99
2022-07-28T10:30:37.029Z,62.07
2022-07-28T10:31:36.926Z,64.23
2022-07-28T10:32:36.921Z,65.76
2022-07-28T10:33:36.911Z,59.63
2022-07-28T10:34:36.875Z,65.88
2022-07-28T10:35:54.450Z,65.26
2022-07-28T10:36:37.883Z,63.65
2022-07-28T10:37:36.883Z,63.01
2022-07-28T10:38:36.995Z,67.37
2022-07-28T10:39:37.509Z,65.30
2022-07-28T10:40:37.636Z,66.56
2022-07-28T10:41:36.838Z,63.07
2022-07-28T10:42:36.859Z,65.06
2022-07-28T10:43:36.901Z,60.38
2022-07-28T10:44:37.830Z,69.20
2022-07-28T10:46:03.344Z,65.09
2022-07-28T10:46:39.546Z,67.90
2022-07-28T10:47:36.812Z,66.49
2022-07-28T10:48:36.856Z,61.52
2022-07-28T10:49:36.931Z,66.13
2022-07-28T10:50:38.641Z,65.76
2022-07-28T10:51:44.619Z,65.03
2022-07-28T10:52:48.912Z,67.61
2022-07-28T10:53:39.540Z,62.59
2022-07-28T10:54:36.791Z,66.80
2022-07-28T10:55:36.754Z,61.62
2022-07-28T10:56:37.643Z,62.26
2022-07-28T10:57:36.727Z,68.49
2022-07-28T10:58:36.730Z,66.35
2022-07-28T10:59:36.702Z,60.94
2022-07-28T11:00:53.054Z,69.50
2022-07-28T11:01:52.310Z,63.76
2022-07-28T11:02:38.795Z,65.92
2022-07-28T11:03:37.648Z,60.34
2022-07-28T11:04:37.650Z,64.87
2022-07-28T11:05:37.033Z,68.11
2022-07-28T11:06:39.803Z,61.52
2022-07-28T11:07:37.658Z,66.28
2022-07-28T11:08:36.635Z,63.36
2022-07-28T11:09:36.655Z,65.40
2022-07-28T11:10:37.691Z,62.26
2022-07-28T11:11:36.623Z,68.14
2022-07-28T11:12:36.635Z,67.49
2022-07-28T11:13:40.799Z,60.43
2022-07-28T11:14:37.122Z,68.21
2022-07-28T11:15:36.613Z,59.23
2022-07-28T11:16:37.644Z,67.44
2022-07-28T11:17:36.605Z,65.62
2022-07-28T11:18:36.592Z,63.30
2022-07-28T11:19:51.543Z,61.76
2022-07-28T11:20:37.560Z,65.10
2022-07-28T11:21:39.615Z,65.35
2022-07-28T11:22:36.553Z,61.17
2022-07-28T11:23:36.538Z,62.05
2022-07-28T11:24:36.527Z,60.68
2022-07-28T11:25:36.529Z,63.48
2022-07-28T11:26:36.521Z,63.69
2022-07-28T11:27:36.841Z,67.01
2022-07-28T11:28:36.504Z,60.98
2022-07-28T11:29:36.525Z,64.06
2022-07-28T11:30:37.183Z,66.08
2022-07-28T11:31:36.494Z,65.49
2022-07-28T11:32:44.129Z,69.52
2022-07-28T11:33:38.503Z,63.70
2022-07-28T11:34:37.500Z,61.57
2022-07-28T11:35:36.457Z,60.78
2022-07-28T11:36:36.543Z,62.12
2022-07-28T11:37:36.442Z,67.33
2022-07-28T11:38:36.421Z,59.09
2022-07-28T11:39:43.466Z,67.19
2022-07-28T11:40:39.456Z,62.97
2022-07-28T11:41:36.464Z,67.39
2022-07-28T11:42:37.107Z,59.27
2022-07-28T11:43:38.989Z,57.71
2022-07-28T11:44:37.383Z,64.16
2022-07-28T11:45:39.322Z,65.71
2022-07-28T11:46:37.598Z,69.96
2022-07-28T11:47:36.361Z,62.02
2022-07-28T11:48:36.411Z,69.18
2022-07-28T11:49:36.338Z,62.42
2022-07-28T11:50:36.330Z,65.27
2022-07-28T11:51:51.102Z,68.40
2022-07-28T11:52:38.323Z,65.37
2022-07-28T11:53:36.313Z,66.89
2022-07-28T11:54:36.323Z,68.07
2022-07-28T11:55:55.702Z,68.08
2022-07-28T11:56:37.330Z,67.43
2022-07-28T11:57:36.367Z,66.19
2022-07-28T11:58:36.303Z,62.26
2022-07-28T11:59:36.627Z,67.41
2022-07-28T12:00:36.290Z,62.77
2022-07-28T12:01:38.320Z,69.74
2022-07-28T12:02:36.423Z,66.81
2022-07-28T12:03:49.179Z,63.99
2022-07-28T12:04:37.299Z,70.31
2022-07-28T12:05:42.069Z,65.31
2022-07-28T12:06:37.381Z,59.82
2022-07-28T12:07:36.219Z,64.10
2022-07-28T12:08:36.209Z,65.90
2022-07-28T12:09:42.355Z,66.51
2022-07-28T12:10:55.387Z,67.02
2022-07-28T12:11:38.332Z,70.95
2022-07-28T12:12:36.212Z,66.93
2022-07-28T12:13:36.174Z,58.14
2022-07-28T12:14:39.069Z,65.12
2022-07-28T12:15:37.160Z,67.73
2022-07-28T12:16:36.221Z,65.88
2022-07-28T12:17:36.145Z,66.85
2022-07-28T12:18:36.165Z,66.78
2022-07-28T12:19:36.142Z,65.89
2022-07-28T12:20:36.134Z,68.14
2022-07-28T12:21:36.112Z,66.63
2022-07-28T12:22:36.171Z,67.68
2022-07-28T12:23:44.139Z,62.20
2022-07-28T12:24:46.111Z,67.99
2022-07-28T12:25:37.079Z,66.55
2022-07-28T12:26:40.590Z,67.66
2022-07-28T12:27:37.596Z,57.61
2022-07-28T12:28:36.077Z,61.73
2022-07-28T12:29:36.975Z,64.93
2022-07-28T12:30:36.057Z,59.10
2022-07-28T12:31:36.126Z,69.95
2022-07-28T12:32:36.041Z,68.15
2022-07-28T12:33:36.022Z,66.15
2022-07-28T12:34:36.045Z,63.49
2022-07-28T12:35:36.028Z,65.22
2022-07-28T12:36:36.975Z,67.23
2022-07-28T12:37:36.018Z,67.07
2022-07-28T12:38:35.991Z,67.51
2022-07-28T12:39:36.007Z,66.27
2022-07-28T12:40:36.841Z,67.84
2022-07-28T12:41:35.987Z,63.58
2022-07-28T12:42:35.951Z,66.45
2022-07-28T12:43:35.949Z,59.33
2022-07-28T12:44:35.974Z,68.90
2022-07-28T12:45:36.027Z,68.44
2022-07-28T12:46:35.944Z,67.28
2022-07-28T12:47:35.907Z,66.11
2022-07-28T12:48:35.942Z,67.84
2022-07-28T12:49:35.913Z,63.10
2022-07-28T12:50:35.910Z,63.90
2022-07-28T12:51:35.907Z,67.00
2022-07-28T12:52:35.934Z,68.61
2022-07-28T12:53:36.020Z,67.18
2022-07-28T12:54:35.934Z,65.13
2022-07-28T12:55:35.874Z,69.15
2022-07-28T12:56:35.867Z,64.31
2022-07-28T12:57:35.877Z,64.51
2022-07-28T12:58:36.213Z,66.87
2022-07-28T12:59:35.927Z,62.23
2022-07-28T13:00:35.957Z,68.30
2022-07-28T13:01:35.872Z,66.31
2022-07-28T13:02:35.925Z,65.34
2022-07-28T13:03:35.824Z,64.41
2022-07-28T13:04:35.869Z,66.47
2022-07-28T13:05:35.800Z,64.16
2022-07-28T13:06:35.812Z,67.03
2022-07-28T13:07:36.207Z,65.52
2022-07-28T13:08:35.964Z,55.69
2022-07-28T13:09:36.766Z,66.13
2022-07-28T13:10:35.845Z,64.91
2022-07-28T13:11:45.953Z,65.40
2022-07-28T13:12:37.728Z,68.18
2022-07-28T13:13:35.751Z,67.86
2022-07-28T13:14:35.812Z,69.03
2022-07-28T13:15:36.016Z,67.21
2022-07-28T13:16:35.840Z,63.11
2022-07-28T13:17:35.766Z,69.40
2022-07-28T13:18:35.764Z,66.87
2022-07-28T13:19:35.688Z,56.48
2022-07-28T13:20:36.724Z,67.50
2022-07-28T13:21:35.671Z,69.75
2022-07-28T13:22:35.697Z,68.70
2022-07-28T13:23:35.674Z,67.06
2022-07-28T13:24:35.642Z,68.85
2022-07-28T13:25:35.642Z,62.12
2022-07-28T13:26:35.656Z,65.64